sensor_id;sensor_type;location;lat;lon;timestamp;P1;durP1;ratioP1;P2;durP2;ratioP2
76021;SDS011;64718;52.124;6.226;2024-02-21T00:01:26;21.25;;;8.80;;
76021;SDS011;64718;52.124;6.226;2024-02-21T00:03:52;22.75;;;9.65;;
76021;SDS011;64718;52.124;6.226;2024-02-21T00:06:19;19.17;;;9.00;;
76021;SDS011;64718;52.124;6.226;2024-02-21T00:08:47;21.25;;;9.82;;
76021;SDS011;64718;52.124;6.226;2024-02-21T00:11:13;22.83;;;9.45;;
76021;SDS011;64718;52.124;6.226;2024-02-21T00:13:41;19.45;;;9.20;;
76021;SDS011;64718;52.124;6.226;2024-02-21T00:16:08;21.05;;;8.60;;
76021;SDS011;64718;52.124;6.226;2024-02-21T00:18:35;25.80;;;11.57;;
76021;SDS011;64718;52.124;6.226;2024-02-21T00:21:02;26.15;;;10.10;;
76021;SDS011;64718;52.124;6.226;2024-02-21T00:23:29;20.13;;;9.70;;
76021;SDS011;64718;52.124;6.226;2024-02-21T00:25:55;22.00;;;9.45;;
76021;SDS011;64718;52.124;6.226;2024-02-21T00:28:22;21.15;;;8.95;;
76021;SDS011;64718;52.124;6.226;2024-02-21T00:30:50;25.92;;;11.50;;
76021;SDS011;64718;52.124;6.226;2024-02-21T00:33:18;19.15;;;8.35;;
76021;SDS011;64718;52.124;6.226;2024-02-21T00:35:44;18.38;;;8.55;;
76021;SDS011;64718;52.124;6.226;2024-02-21T00:38:11;21.27;;;8.88;;
76021;SDS011;64718;52.124;6.226;2024-02-21T00:40:38;23.70;;;8.60;;
76021;SDS011;64718;52.124;6.226;2024-02-21T00:43:05;15.30;;;7.13;;
76021;SDS011;64718;52.124;6.226;2024-02-21T00:45:31;21.10;;;8.30;;
76021;SDS011;64718;52.124;6.226;2024-02-21T00:47:59;22.33;;;8.30;;
76021;SDS011;64718;52.124;6.226;2024-02-21T00:50:26;17.67;;;9.27;;
76021;SDS011;64718;52.124;6.226;2024-02-21T00:52:53;15.07;;;6.78;;
76021;SDS011;64718;52.124;6.226;2024-02-21T00:55:18;21.25;;;7.93;;
76021;SDS011;64718;52.124;6.226;2024-02-21T00:57:45;18.55;;;7.97;;
76021;SDS011;64718;52.124;6.226;2024-02-21T01:00:12;23.83;;;9.25;;
76021;SDS011;64718;52.124;6.226;2024-02-21T01:02:39;16.95;;;8.75;;
76021;SDS011;64718;52.124;6.226;2024-02-21T01:05:07;21.15;;;9.02;;
76021;SDS011;64718;52.124;6.226;2024-02-21T01:07:34;15.93;;;8.35;;
76021;SDS011;64718;52.124;6.226;2024-02-21T01:10:00;19.10;;;8.70;;
76021;SDS011;64718;52.124;6.226;2024-02-21T01:12:27;19.05;;;8.15;;
76021;SDS011;64718;52.124;6.226;2024-02-21T01:14:53;20.30;;;9.00;;
76021;SDS011;64718;52.124;6.226;2024-02-21T01:17:20;16.27;;;8.27;;
76021;SDS011;64718;52.124;6.226;2024-02-21T01:19:46;18.42;;;8.60;;
76021;SDS011;64718;52.124;6.226;2024-02-21T01:22:15;17.90;;;7.88;;
76021;SDS011;64718;52.124;6.226;2024-02-21T01:24:42;18.10;;;7.82;;
76021;SDS011;64718;52.124;6.226;2024-02-21T01:27:09;15.93;;;7.65;;
76021;SDS011;64718;52.124;6.226;2024-02-21T01:29:35;22.55;;;10.13;;
76021;SDS011;64718;52.124;6.226;2024-02-21T01:32:02;16.50;;;8.18;;
76021;SDS011;64718;52.124;6.226;2024-02-21T01:34:29;17.67;;;8.25;;
76021;SDS011;64718;52.124;6.226;2024-02-21T01:36:55;22.35;;;9.35;;
76021;SDS011;64718;52.124;6.226;2024-02-21T01:39:23;18.55;;;8.38;;
76021;SDS011;64718;52.124;6.226;2024-02-21T01:41:50;19.55;;;9.00;;
76021;SDS011;64718;52.124;6.226;2024-02-21T01:44:16;16.90;;;9.23;;
76021;SDS011;64718;52.124;6.226;2024-02-21T01:46:43;19.50;;;8.30;;
76021;SDS011;64718;52.124;6.226;2024-02-21T01:49:10;23.95;;;9.68;;
76021;SDS011;64718;52.124;6.226;2024-02-21T01:51:36;16.35;;;7.90;;
76021;SDS011;64718;52.124;6.226;2024-02-21T01:54:03;18.80;;;8.77;;
76021;SDS011;64718;52.124;6.226;2024-02-21T01:56:31;21.50;;;9.18;;
76021;SDS011;64718;52.124;6.226;2024-02-21T01:58:58;18.17;;;7.57;;
76021;SDS011;64718;52.124;6.226;2024-02-21T02:01:25;17.48;;;8.48;;
76021;SDS011;64718;52.124;6.226;2024-02-21T02:03:51;19.55;;;9.63;;
76021;SDS011;64718;52.124;6.226;2024-02-21T02:06:18;17.58;;;7.95;;
76021;SDS011;64718;52.124;6.226;2024-02-21T02:08:45;16.13;;;7.38;;
76021;SDS011;64718;52.124;6.226;2024-02-21T02:11:13;17.58;;;8.70;;
76021;SDS011;64718;52.124;6.226;2024-02-21T02:13:41;14.82;;;7.38;;
76021;SDS011;64718;52.124;6.226;2024-02-21T02:16:08;16.77;;;8.00;;
76021;SDS011;64718;52.124;6.226;2024-02-21T02:18:34;19.02;;;7.15;;
76021;SDS011;64718;52.124;6.226;2024-02-21T02:21:01;15.52;;;6.35;;
76021;SDS011;64718;52.124;6.226;2024-02-21T02:23:32;17.08;;;7.72;;
76021;SDS011;64718;52.124;6.226;2024-02-21T02:25:59;19.67;;;9.05;;
76021;SDS011;64718;52.124;6.226;2024-02-21T02:28:27;13.48;;;7.47;;
76021;SDS011;64718;52.124;6.226;2024-02-21T02:30:53;25.90;;;9.32;;
76021;SDS011;64718;52.124;6.226;2024-02-21T02:33:20;19.00;;;7.00;;
76021;SDS011;64718;52.124;6.226;2024-02-21T02:35:46;18.98;;;9.05;;
76021;SDS011;64718;52.124;6.226;2024-02-21T02:38:13;15.63;;;8.02;;
76021;SDS011;64718;52.124;6.226;2024-02-21T02:40:41;17.48;;;8.90;;
76021;SDS011;64718;52.124;6.226;2024-02-21T02:43:08;19.15;;;8.82;;
76021;SDS011;64718;52.124;6.226;2024-02-21T02:45:34;16.52;;;7.40;;
76021;SDS011;64718;52.124;6.226;2024-02-21T02:48:01;18.88;;;8.00;;
76021;SDS011;64718;52.124;6.226;2024-02-21T02:50:28;14.90;;;7.63;;
76021;SDS011;64718;52.124;6.226;2024-02-21T02:52:54;19.63;;;8.68;;
76021;SDS011;64718;52.124;6.226;2024-02-21T02:55:21;17.05;;;8.82;;
76021;SDS011;64718;52.124;6.226;2024-02-21T02:57:49;16.85;;;8.25;;
76021;SDS011;64718;52.124;6.226;2024-02-21T03:00:16;27.13;;;9.02;;
76021;SDS011;64718;52.124;6.226;2024-02-21T03:02:44;21.60;;;9.68;;
76021;SDS011;64718;52.124;6.226;2024-02-21T03:05:12;21.42;;;8.15;;
76021;SDS011;64718;52.124;6.226;2024-02-21T03:07:40;22.48;;;9.23;;
76021;SDS011;64718;52.124;6.226;2024-02-21T03:10:07;16.48;;;7.85;;
76021;SDS011;64718;52.124;6.226;2024-02-21T03:12:34;16.35;;;6.80;;
76021;SDS011;64718;52.124;6.226;2024-02-21T03:15:02;16.00;;;8.70;;
76021;SDS011;64718;52.124;6.226;2024-02-21T03:17:29;23.65;;;9.68;;
76021;SDS011;64718;52.124;6.226;2024-02-21T03:19:56;18.33;;;6.45;;
76021;SDS011;64718;52.124;6.226;2024-02-21T03:22:23;17.63;;;8.48;;
76021;SDS011;64718;52.124;6.226;2024-02-21T03:24:50;18.40;;;7.60;;
76021;SDS011;64718;52.124;6.226;2024-02-21T03:27:17;16.90;;;6.75;;
76021;SDS011;64718;52.124;6.226;2024-02-21T03:29:43;16.38;;;8.00;;
76021;SDS011;64718;52.124;6.226;2024-02-21T03:32:11;13.10;;;6.70;;
76021;SDS011;64718;52.124;6.226;2024-02-21T03:34:38;19.50;;;8.85;;
76021;SDS011;64718;52.124;6.226;2024-02-21T03:37:04;17.27;;;8.95;;
76021;SDS011;64718;52.124;6.226;2024-02-21T03:39:31;15.88;;;7.95;;
76021;SDS011;64718;52.124;6.226;2024-02-21T03:41:57;19.73;;;8.23;;
76021;SDS011;64718;52.124;6.226;2024-02-21T03:44:25;16.65;;;8.00;;
76021;SDS011;64718;52.124;6.226;2024-02-21T03:46:52;15.82;;;7.38;;
76021;SDS011;64718;52.124;6.226;2024-02-21T03:49:20;17.35;;;8.48;;
76021;SDS011;64718;52.124;6.226;2024-02-21T03:51:46;17.20;;;7.63;;
76021;SDS011;64718;52.124;6.226;2024-02-21T03:54:13;16.10;;;8.18;;
76021;SDS011;64718;52.124;6.226;2024-02-21T03:56:39;16.85;;;8.15;;
76021;SDS011;64718;52.124;6.226;2024-02-21T03:59:06;17.20;;;8.35;;
76021;SDS011;64718;52.124;6.226;2024-02-21T04:01:33;15.38;;;7.95;;
76021;SDS011;64718;52.124;6.226;2024-02-21T04:03:59;18.83;;;7.22;;
76021;SDS011;64718;52.124;6.226;2024-02-21T04:06:27;20.42;;;8.27;;
76021;SDS011;64718;52.124;6.226;2024-02-21T04:08:53;18.00;;;7.75;;
76021;SDS011;64718;52.124;6.226;2024-02-21T04:11:20;21.58;;;7.70;;
76021;SDS011;64718;52.124;6.226;2024-02-21T04:13:48;14.73;;;8.02;;
76021;SDS011;64718;52.124;6.226;2024-02-21T04:16:15;14.63;;;6.22;;
76021;SDS011;64718;52.124;6.226;2024-02-21T04:18:42;18.73;;;8.23;;
76021;SDS011;64718;52.124;6.226;2024-02-21T04:21:09;14.50;;;8.10;;
76021;SDS011;64718;52.124;6.226;2024-02-21T04:23:37;16.25;;;7.18;;
76021;SDS011;64718;52.124;6.226;2024-02-21T04:26:03;15.98;;;8.00;;
76021;SDS011;64718;52.124;6.226;2024-02-21T04:28:30;17.35;;;6.78;;
76021;SDS011;64718;52.124;6.226;2024-02-21T04:30:56;20.52;;;7.88;;
76021;SDS011;64718;52.124;6.226;2024-02-21T04:33:23;17.02;;;7.15;;
76021;SDS011;64718;52.124;6.226;2024-02-21T04:35:49;14.43;;;6.13;;
76021;SDS011;64718;52.124;6.226;2024-02-21T04:38:16;10.85;;;6.85;;
76021;SDS011;64718;52.124;6.226;2024-02-21T04:40:44;17.50;;;7.05;;
76021;SDS011;64718;52.124;6.226;2024-02-21T04:43:11;12.68;;;5.95;;
76021;SDS011;64718;52.124;6.226;2024-02-21T04:45:37;13.55;;;7.72;;
76021;SDS011;64718;52.124;6.226;2024-02-21T04:48:04;14.57;;;5.95;;
76021;SDS011;64718;52.124;6.226;2024-02-21T04:50:31;18.00;;;6.55;;
76021;SDS011;64718;52.124;6.226;2024-02-21T04:52:57;12.25;;;6.43;;
76021;SDS011;64718;52.124;6.226;2024-02-21T04:55:24;17.35;;;5.80;;
76021;SDS011;64718;52.124;6.226;2024-02-21T04:57:52;23.35;;;6.93;;
76021;SDS011;64718;52.124;6.226;2024-02-21T05:00:19;12.73;;;5.93;;
76021;SDS011;64718;52.124;6.226;2024-02-21T05:02:46;14.02;;;5.82;;
76021;SDS011;64718;52.124;6.226;2024-02-21T05:05:12;14.00;;;6.63;;
76021;SDS011;64718;52.124;6.226;2024-02-21T05:07:40;12.73;;;6.55;;
76021;SDS011;64718;52.124;6.226;2024-02-21T05:10:07;20.42;;;7.20;;
76021;SDS011;64718;52.124;6.226;2024-02-21T05:12:34;11.88;;;5.53;;
76021;SDS011;64718;52.124;6.226;2024-02-21T05:15:02;14.32;;;5.82;;
76021;SDS011;64718;52.124;6.226;2024-02-21T05:17:29;11.20;;;5.55;;
76021;SDS011;64718;52.124;6.226;2024-02-21T05:19:56;13.57;;;5.55;;
76021;SDS011;64718;52.124;6.226;2024-02-21T05:22:23;16.20;;;5.85;;
76021;SDS011;64718;52.124;6.226;2024-02-21T05:24:49;12.98;;;6.10;;
76021;SDS011;64718;52.124;6.226;2024-02-21T05:27:15;13.60;;;6.28;;
76021;SDS011;64718;52.124;6.226;2024-02-21T05:29:42;9.95;;;5.47;;
76021;SDS011;64718;52.124;6.226;2024-02-21T05:32:10;17.02;;;6.18;;
76021;SDS011;64718;52.124;6.226;2024-02-21T05:34:37;12.73;;;5.80;;
76021;SDS011;64718;52.124;6.226;2024-02-21T05:37:03;10.52;;;5.35;;
76021;SDS011;64718;52.124;6.226;2024-02-21T05:39:30;9.98;;;5.68;;
76021;SDS011;64718;52.124;6.226;2024-02-21T05:41:56;13.02;;;6.75;;
76021;SDS011;64718;52.124;6.226;2024-02-21T05:44:23;11.07;;;5.22;;
76021;SDS011;64718;52.124;6.226;2024-02-21T05:46:51;12.20;;;6.22;;
76021;SDS011;64718;52.124;6.226;2024-02-21T05:49:19;10.65;;;4.72;;
76021;SDS011;64718;52.124;6.226;2024-02-21T05:51:46;12.95;;;5.80;;
76021;SDS011;64718;52.124;6.226;2024-02-21T05:54:13;12.27;;;5.63;;
76021;SDS011;64718;52.124;6.226;2024-02-21T05:56:39;10.50;;;4.72;;
76021;SDS011;64718;52.124;6.226;2024-02-21T05:59:10;10.90;;;4.97;;
76021;SDS011;64718;52.124;6.226;2024-02-21T06:01:37;10.63;;;5.25;;
76021;SDS011;64718;52.124;6.226;2024-02-21T06:04:03;15.30;;;5.60;;
76021;SDS011;64718;52.124;6.226;2024-02-21T06:06:31;13.18;;;6.93;;
76021;SDS011;64718;52.124;6.226;2024-02-21T06:08:58;9.68;;;4.85;;
76021;SDS011;64718;52.124;6.226;2024-02-21T06:11:25;10.30;;;4.88;;
76021;SDS011;64718;52.124;6.226;2024-02-21T06:13:51;12.13;;;5.60;;
76021;SDS011;64718;52.124;6.226;2024-02-21T06:16:18;16.30;;;6.13;;
76021;SDS011;64718;52.124;6.226;2024-02-21T06:18:44;11.60;;;5.20;;
76021;SDS011;64718;52.124;6.226;2024-02-21T06:21:11;10.85;;;6.32;;
76021;SDS011;64718;52.124;6.226;2024-02-21T06:23:39;14.95;;;6.28;;
76021;SDS011;64718;52.124;6.226;2024-02-21T06:26:05;16.75;;;6.28;;
76021;SDS011;64718;52.124;6.226;2024-02-21T06:28:32;16.33;;;7.15;;
76021;SDS011;64718;52.124;6.226;2024-02-21T06:30:58;11.50;;;4.65;;
76021;SDS011;64718;52.124;6.226;2024-02-21T06:33:25;14.75;;;5.70;;
76021;SDS011;64718;52.124;6.226;2024-02-21T06:35:51;13.75;;;5.30;;
76021;SDS011;64718;52.124;6.226;2024-02-21T06:38:19;15.10;;;7.32;;
76021;SDS011;64718;52.124;6.226;2024-02-21T06:40:46;12.63;;;6.13;;
76021;SDS011;64718;52.124;6.226;2024-02-21T06:43:17;13.93;;;5.70;;
76021;SDS011;64718;52.124;6.226;2024-02-21T06:45:44;10.10;;;5.93;;
76021;SDS011;64718;52.124;6.226;2024-02-21T06:48:15;12.60;;;5.50;;
76021;SDS011;64718;52.124;6.226;2024-02-21T06:50:42;12.48;;;6.60;;
76021;SDS011;64718;52.124;6.226;2024-02-21T06:53:09;12.07;;;6.53;;
76021;SDS011;64718;52.124;6.226;2024-02-21T06:55:35;8.77;;;5.40;;
76021;SDS011;64718;52.124;6.226;2024-02-21T06:58:03;11.60;;;6.20;;
76021;SDS011;64718;52.124;6.226;2024-02-21T07:00:30;13.05;;;5.18;;
76021;SDS011;64718;52.124;6.226;2024-02-21T07:02:56;9.40;;;5.13;;
76021;SDS011;64718;52.124;6.226;2024-02-21T07:05:23;9.88;;;3.85;;
76021;SDS011;64718;52.124;6.226;2024-02-21T07:07:49;12.98;;;5.43;;
76021;SDS011;64718;52.124;6.226;2024-02-21T07:10:16;10.60;;;4.97;;
76021;SDS011;64718;52.124;6.226;2024-02-21T07:12:42;9.77;;;5.18;;
76021;SDS011;64718;52.124;6.226;2024-02-21T07:15:10;9.30;;;5.88;;
76021;SDS011;64718;52.124;6.226;2024-02-21T07:17:37;12.13;;;4.55;;
76021;SDS011;64718;52.124;6.226;2024-02-21T07:20:04;11.70;;;4.80;;
76021;SDS011;64718;52.124;6.226;2024-02-21T07:22:31;10.82;;;4.53;;
76021;SDS011;64718;52.124;6.226;2024-02-21T07:24:58;11.35;;;5.20;;
76021;SDS011;64718;52.124;6.226;2024-02-21T07:27:24;13.25;;;5.50;;
76021;SDS011;64718;52.124;6.226;2024-02-21T07:29:53;13.02;;;5.45;;
76021;SDS011;64718;52.124;6.226;2024-02-21T07:32:21;10.25;;;5.60;;
76021;SDS011;64718;52.124;6.226;2024-02-21T07:34:47;13.27;;;5.50;;
76021;SDS011;64718;52.124;6.226;2024-02-21T07:37:14;12.82;;;5.22;;
76021;SDS011;64718;52.124;6.226;2024-02-21T07:39:40;16.05;;;6.10;;
76021;SDS011;64718;52.124;6.226;2024-02-21T07:42:07;13.77;;;5.05;;
76021;SDS011;64718;52.124;6.226;2024-02-21T07:44:33;12.27;;;5.25;;
76021;SDS011;64718;52.124;6.226;2024-02-21T07:47:00;9.57;;;4.95;;
76021;SDS011;64718;52.124;6.226;2024-02-21T07:49:28;13.88;;;5.72;;
76021;SDS011;64718;52.124;6.226;2024-02-21T07:51:55;11.05;;;5.25;;
76021;SDS011;64718;52.124;6.226;2024-02-21T07:54:21;11.95;;;5.13;;
76021;SDS011;64718;52.124;6.226;2024-02-21T07:56:48;11.18;;;5.55;;
76021;SDS011;64718;52.124;6.226;2024-02-21T07:59:14;11.13;;;5.35;;
76021;SDS011;64718;52.124;6.226;2024-02-21T08:01:41;13.00;;;4.93;;
76021;SDS011;64718;52.124;6.226;2024-02-21T08:04:09;11.95;;;5.47;;
76021;SDS011;64718;52.124;6.226;2024-02-21T08:06:37;8.35;;;4.82;;
76021;SDS011;64718;52.124;6.226;2024-02-21T08:09:04;11.52;;;5.28;;
76021;SDS011;64718;52.124;6.226;2024-02-21T08:11:30;11.48;;;5.25;;
76021;SDS011;64718;52.124;6.226;2024-02-21T08:13:57;11.55;;;4.65;;
76021;SDS011;64718;52.124;6.226;2024-02-21T08:16:24;10.88;;;4.80;;
76021;SDS011;64718;52.124;6.226;2024-02-21T08:18:50;11.05;;;5.00;;
76021;SDS011;64718;52.124;6.226;2024-02-21T08:21:17;12.98;;;5.72;;
76021;SDS011;64718;52.124;6.226;2024-02-21T08:23:45;12.68;;;5.63;;
76021;SDS011;64718;52.124;6.226;2024-02-21T08:26:16;6.75;;;3.53;;
76021;SDS011;64718;52.124;6.226;2024-02-21T08:28:42;9.50;;;4.30;;
76021;SDS011;64718;52.124;6.226;2024-02-21T08:31:09;11.98;;;4.93;;
76021;SDS011;64718;52.124;6.226;2024-02-21T08:33:35;13.63;;;5.20;;
76021;SDS011;64718;52.124;6.226;2024-02-21T08:36:02;11.13;;;6.32;;
76021;SDS011;64718;52.124;6.226;2024-02-21T08:38:29;10.38;;;4.32;;
76021;SDS011;64718;52.124;6.226;2024-02-21T08:40:57;8.02;;;4.40;;
76021;SDS011;64718;52.124;6.226;2024-02-21T08:43:23;8.68;;;4.85;;
76021;SDS011;64718;52.124;6.226;2024-02-21T08:45:50;7.60;;;3.60;;
76021;SDS011;64718;52.124;6.226;2024-02-21T08:48:16;11.50;;;5.13;;
76021;SDS011;64718;52.124;6.226;2024-02-21T08:50:43;10.15;;;4.45;;
76021;SDS011;64718;52.124;6.226;2024-02-21T08:53:09;8.68;;;4.28;;
76021;SDS011;64718;52.124;6.226;2024-02-21T08:55:36;11.95;;;5.47;;
76021;SDS011;64718;52.124;6.226;2024-02-21T08:58:04;8.50;;;5.25;;
76021;SDS011;64718;52.124;6.226;2024-02-21T09:00:30;10.98;;;4.85;;
76021;SDS011;64718;52.124;6.226;2024-02-21T09:02:57;9.98;;;5.68;;
76021;SDS011;64718;52.124;6.226;2024-02-21T09:05:24;8.45;;;5.30;;
76021;SDS011;64718;52.124;6.226;2024-02-21T09:07:50;12.75;;;5.32;;
76021;SDS011;64718;52.124;6.226;2024-02-21T09:10:17;9.30;;;5.30;;
76021;SDS011;64718;52.124;6.226;2024-02-21T09:12:44;9.38;;;4.70;;
76021;SDS011;64718;52.124;6.226;2024-02-21T09:15:11;14.40;;;5.15;;
76021;SDS011;64718;52.124;6.226;2024-02-21T09:17:38;7.20;;;5.03;;
76021;SDS011;64718;52.124;6.226;2024-02-21T09:20:06;9.95;;;4.82;;
76021;SDS011;64718;52.124;6.226;2024-02-21T09:22:35;11.18;;;5.70;;
76021;SDS011;64718;52.124;6.226;2024-02-21T09:25:02;13.02;;;4.88;;
76021;SDS011;64718;52.124;6.226;2024-02-21T09:27:29;10.32;;;4.75;;
76021;SDS011;64718;52.124;6.226;2024-02-21T09:29:56;8.85;;;5.30;;
76021;SDS011;64718;52.124;6.226;2024-02-21T09:32:24;10.45;;;5.80;;
76021;SDS011;64718;52.124;6.226;2024-02-21T09:37:19;7.50;;;4.82;;
76021;SDS011;64718;52.124;6.226;2024-02-21T09:39:45;10.40;;;4.82;;
76021;SDS011;64718;52.124;6.226;2024-02-21T09:42:12;9.93;;;4.45;;
76021;SDS011;64718;52.124;6.226;2024-02-21T09:44:44;9.35;;;4.97;;
76021;SDS011;64718;52.124;6.226;2024-02-21T09:47:16;7.05;;;4.03;;
76021;SDS011;64718;52.124;6.226;2024-02-21T09:49:47;7.85;;;4.57;;
76021;SDS011;64718;52.124;6.226;2024-02-21T09:52:14;8.90;;;5.13;;
76021;SDS011;64718;52.124;6.226;2024-02-21T09:54:41;11.07;;;3.85;;
76021;SDS011;64718;52.124;6.226;2024-02-21T09:57:10;5.35;;;2.72;;
76021;SDS011;64718;52.124;6.226;2024-02-21T09:59:36;8.75;;;4.50;;
76021;SDS011;64718;52.124;6.226;2024-02-21T10:02:04;7.63;;;4.97;;
76021;SDS011;64718;52.124;6.226;2024-02-21T10:04:31;7.30;;;4.45;;
76021;SDS011;64718;52.124;6.226;2024-02-21T10:06:59;5.03;;;4.15;;
76021;SDS011;64718;52.124;6.226;2024-02-21T10:09:26;8.15;;;4.32;;
76021;SDS011;64718;52.124;6.226;2024-02-21T10:14:28;8.70;;;4.68;;
76021;SDS011;64718;52.124;6.226;2024-02-21T10:16:56;6.65;;;3.42;;
76021;SDS011;64718;52.124;6.226;2024-02-21T10:19:24;5.93;;;3.45;;
76021;SDS011;64718;52.124;6.226;2024-02-21T10:22:03;5.82;;;3.75;;
76021;SDS011;64718;52.124;6.226;2024-02-21T10:24:32;8.27;;;3.83;;
76021;SDS011;64718;52.124;6.226;2024-02-21T10:27:01;8.05;;;3.75;;
76021;SDS011;64718;52.124;6.226;2024-02-21T10:29:28;7.35;;;3.33;;
76021;SDS011;64718;52.124;6.226;2024-02-21T10:32:03;12.20;;;4.55;;
76021;SDS011;64718;52.124;6.226;2024-02-21T10:34:31;6.82;;;4.22;;
76021;SDS011;64718;52.124;6.226;2024-02-21T10:36:59;6.22;;;3.50;;
76021;SDS011;64718;52.124;6.226;2024-02-21T10:39:28;9.55;;;4.78;;
76021;SDS011;64718;52.124;6.226;2024-02-21T10:41:55;7.60;;;4.45;;
76021;SDS011;64718;52.124;6.226;2024-02-21T10:44:26;7.43;;;3.92;;
76021;SDS011;64718;52.124;6.226;2024-02-21T10:46:55;6.18;;;3.53;;
76021;SDS011;64718;52.124;6.226;2024-02-21T10:49:22;6.88;;;3.33;;
76021;SDS011;64718;52.124;6.226;2024-02-21T10:51:52;7.57;;;3.85;;
76021;SDS011;64718;52.124;6.226;2024-02-21T10:54:33;6.88;;;3.60;;
76021;SDS011;64718;52.124;6.226;2024-02-21T10:57:06;9.60;;;3.42;;
76021;SDS011;64718;52.124;6.226;2024-02-21T10:59:34;6.13;;;3.10;;
76021;SDS011;64718;52.124;6.226;2024-02-21T11:02:03;5.55;;;2.97;;
76021;SDS011;64718;52.124;6.226;2024-02-21T11:04:30;6.43;;;2.40;;
76021;SDS011;64718;52.124;6.226;2024-02-21T11:07:01;5.68;;;3.28;;
76021;SDS011;64718;52.124;6.226;2024-02-21T11:09:33;3.92;;;2.92;;
76021;SDS011;64718;52.124;6.226;2024-02-21T11:12:01;7.28;;;3.17;;
76021;SDS011;64718;52.124;6.226;2024-02-21T11:14:28;3.40;;;2.40;;
76021;SDS011;64718;52.124;6.226;2024-02-21T11:16:57;3.83;;;2.60;;
76021;SDS011;64718;52.124;6.226;2024-02-21T11:19:24;4.45;;;2.17;;
76021;SDS011;64718;52.124;6.226;2024-02-21T11:21:52;4.82;;;2.72;;
76021;SDS011;64718;52.124;6.226;2024-02-21T11:24:25;4.70;;;2.80;;
76021;SDS011;64718;52.124;6.226;2024-02-21T11:26:55;5.82;;;3.15;;
76021;SDS011;64718;52.124;6.226;2024-02-21T11:29:25;5.47;;;3.63;;
76021;SDS011;64718;52.124;6.226;2024-02-21T11:31:54;6.22;;;3.50;;
76021;SDS011;64718;52.124;6.226;2024-02-21T11:34:20;5.88;;;3.70;;
76021;SDS011;64718;52.124;6.226;2024-02-21T11:36:47;6.75;;;4.32;;
76021;SDS011;64718;52.124;6.226;2024-02-21T11:39:19;5.38;;;3.40;;
76021;SDS011;64718;52.124;6.226;2024-02-21T11:41:47;7.22;;;3.92;;
76021;SDS011;64718;52.124;6.226;2024-02-21T11:44:15;5.07;;;3.30;;
76021;SDS011;64718;52.124;6.226;2024-02-21T11:46:41;5.93;;;3.63;;
76021;SDS011;64718;52.124;6.226;2024-02-21T11:49:08;4.72;;;3.00;;
76021;SDS011;64718;52.124;6.226;2024-02-21T11:51:34;7.07;;;2.90;;
76021;SDS011;64718;52.124;6.226;2024-02-21T11:54:01;7.60;;;3.65;;
76021;SDS011;64718;52.124;6.226;2024-02-21T11:56:29;5.63;;;2.95;;
76021;SDS011;64718;52.124;6.226;2024-02-21T11:58:58;5.43;;;2.95;;
76021;SDS011;64718;52.124;6.226;2024-02-21T12:01:26;7.32;;;3.25;;
76021;SDS011;64718;52.124;6.226;2024-02-21T12:03:53;6.40;;;3.50;;
76021;SDS011;64718;52.124;6.226;2024-02-21T12:06:21;11.60;;;4.22;;
76021;SDS011;64718;52.124;6.226;2024-02-21T12:08:47;15.25;;;4.57;;
76021;SDS011;64718;52.124;6.226;2024-02-21T12:11:20;6.07;;;3.25;;
76021;SDS011;64718;52.124;6.226;2024-02-21T12:13:47;8.32;;;3.47;;
76021;SDS011;64718;52.124;6.226;2024-02-21T12:16:24;7.13;;;2.83;;
76021;SDS011;64718;52.124;6.226;2024-02-21T12:18:53;4.90;;;3.53;;
76021;SDS011;64718;52.124;6.226;2024-02-21T12:21:23;6.25;;;3.53;;
76021;SDS011;64718;52.124;6.226;2024-02-21T12:23:50;5.30;;;3.88;;
76021;SDS011;64718;52.124;6.226;2024-02-21T12:26:16;7.82;;;4.22;;
76021;SDS011;64718;52.124;6.226;2024-02-21T12:28:43;7.22;;;3.83;;
76021;SDS011;64718;52.124;6.226;2024-02-21T12:31:09;8.77;;;3.75;;
76021;SDS011;64718;52.124;6.226;2024-02-21T12:33:36;8.50;;;3.35;;
76021;SDS011;64718;52.124;6.226;2024-02-21T12:36:04;6.13;;;2.60;;
76021;SDS011;64718;52.124;6.226;2024-02-21T12:38:31;5.10;;;3.28;;
76021;SDS011;64718;52.124;6.226;2024-02-21T12:40:57;7.55;;;3.60;;
76021;SDS011;64718;52.124;6.226;2024-02-21T12:43:25;9.90;;;3.25;;
76021;SDS011;64718;52.124;6.226;2024-02-21T12:45:52;7.00;;;3.72;;
76021;SDS011;64718;52.124;6.226;2024-02-21T12:48:18;5.97;;;3.30;;
76021;SDS011;64718;52.124;6.226;2024-02-21T12:50:48;5.03;;;2.88;;
76021;SDS011;64718;52.124;6.226;2024-02-21T12:53:17;5.18;;;2.92;;
76021;SDS011;64718;52.124;6.226;2024-02-21T12:55:46;5.28;;;2.90;;
76021;SDS011;64718;52.124;6.226;2024-02-21T12:58:13;5.13;;;3.35;;
76021;SDS011;64718;52.124;6.226;2024-02-21T13:00:40;5.55;;;3.33;;
76021;SDS011;64718;52.124;6.226;2024-02-21T13:03:07;6.68;;;2.30;;
76021;SDS011;64718;52.124;6.226;2024-02-21T13:05:34;4.43;;;2.22;;
76021;SDS011;64718;52.124;6.226;2024-02-21T13:08:01;6.20;;;2.83;;
76021;SDS011;64718;52.124;6.226;2024-02-21T13:10:29;6.00;;;3.08;;
76021;SDS011;64718;52.124;6.226;2024-02-21T13:12:55;5.68;;;2.78;;
76021;SDS011;64718;52.124;6.226;2024-02-21T13:15:22;6.55;;;2.70;;
76021;SDS011;64718;52.124;6.226;2024-02-21T13:17:49;6.38;;;3.28;;
76021;SDS011;64718;52.124;6.226;2024-02-21T13:20:15;9.50;;;3.25;;
76021;SDS011;64718;52.124;6.226;2024-02-21T13:22:42;6.43;;;2.85;;
76021;SDS011;64718;52.124;6.226;2024-02-21T13:25:08;4.13;;;2.42;;
76021;SDS011;64718;52.124;6.226;2024-02-21T13:27:37;5.75;;;3.25;;
76021;SDS011;64718;52.124;6.226;2024-02-21T13:30:03;4.95;;;2.45;;
76021;SDS011;64718;52.124;6.226;2024-02-21T13:32:32;6.40;;;3.83;;
76021;SDS011;64718;52.124;6.226;2024-02-21T13:34:59;10.18;;;3.35;;
76021;SDS011;64718;52.124;6.226;2024-02-21T13:37:28;7.03;;;3.42;;
76021;SDS011;64718;52.124;6.226;2024-02-21T13:39:55;6.35;;;3.08;;
76021;SDS011;64718;52.124;6.226;2024-02-21T13:42:21;7.80;;;2.83;;
76021;SDS011;64718;52.124;6.226;2024-02-21T13:44:50;5.10;;;3.22;;
76021;SDS011;64718;52.124;6.226;2024-02-21T13:47:16;6.18;;;2.65;;
76021;SDS011;64718;52.124;6.226;2024-02-21T13:49:43;5.97;;;3.65;;
76021;SDS011;64718;52.124;6.226;2024-02-21T13:52:09;4.65;;;2.75;;
76021;SDS011;64718;52.124;6.226;2024-02-21T13:54:36;5.93;;;3.38;;
76021;SDS011;64718;52.124;6.226;2024-02-21T13:57:03;5.20;;;3.53;;
76021;SDS011;64718;52.124;6.226;2024-02-21T13:59:29;8.65;;;3.88;;
76021;SDS011;64718;52.124;6.226;2024-02-21T14:01:59;7.28;;;3.58;;
76021;SDS011;64718;52.124;6.226;2024-02-21T14:04:26;4.55;;;3.05;;
76021;SDS011;64718;52.124;6.226;2024-02-21T14:06:52;8.32;;;3.20;;
76021;SDS011;64718;52.124;6.226;2024-02-21T14:09:19;6.07;;;3.35;;
76021;SDS011;64718;52.124;6.226;2024-02-21T14:11:45;4.13;;;3.05;;
76021;SDS011;64718;52.124;6.226;2024-02-21T14:14:12;6.82;;;4.53;;
76021;SDS011;64718;52.124;6.226;2024-02-21T14:16:40;5.88;;;3.30;;
76021;SDS011;64718;52.124;6.226;2024-02-21T14:19:08;8.23;;;3.30;;
76021;SDS011;64718;52.124;6.226;2024-02-21T14:21:35;5.28;;;2.80;;
76021;SDS011;64718;52.124;6.226;2024-02-21T14:24:02;6.85;;;3.10;;
76021;SDS011;64718;52.124;6.226;2024-02-21T14:26:29;5.95;;;3.20;;
76021;SDS011;64718;52.124;6.226;2024-02-21T14:28:56;10.30;;;2.97;;
76021;SDS011;64718;52.124;6.226;2024-02-21T14:31:22;4.43;;;2.63;;
76021;SDS011;64718;52.124;6.226;2024-02-21T14:33:50;5.30;;;3.33;;
76021;SDS011;64718;52.124;6.226;2024-02-21T14:36:18;5.75;;;2.83;;
76021;SDS011;64718;52.124;6.226;2024-02-21T14:38:45;8.88;;;3.00;;
76021;SDS011;64718;52.124;6.226;2024-02-21T14:41:11;10.45;;;3.25;;
76021;SDS011;64718;52.124;6.226;2024-02-21T14:43:38;4.25;;;2.78;;
76021;SDS011;64718;52.124;6.226;2024-02-21T14:46:04;6.57;;;2.97;;